sensor_id;sensor_type;location;lat;lon;timestamp;temperature;humidity
4757;DHT22;2392;52.578;13.426;2023-05-17T00:02:18;10.10;95.70
4757;DHT22;2392;52.578;13.426;2023-05-17T00:04:46;10.00;95.80
4757;DHT22;2392;52.578;13.426;2023-05-17T00:07:13;10.00;96.10
4757;DHT22;2392;52.578;13.426;2023-05-17T00:09:40;10.00;96.40
4757;DHT22;2392;52.578;13.426;2023-05-17T00:12:07;10.00;96.60
4757;DHT22;2392;52.578;13.426;2023-05-17T00:14:34;10.00;96.80
4757;DHT22;2392;52.578;13.426;2023-05-17T00:17:01;9.90;97.40
4757;DHT22;2392;52.578;13.426;2023-05-17T00:19:28;9.90;98.00
4757;DHT22;2392;52.578;13.426;2023-05-17T00:21:56;9.90;97.80
4757;DHT22;2392;52.578;13.426;2023-05-17T00:24:23;9.90;98.10
4757;DHT22;2392;52.578;13.426;2023-05-17T00:26:51;9.90;98.30
4757;DHT22;2392;52.578;13.426;2023-05-17T00:29:18;9.80;98.60
4757;DHT22;2392;52.578;13.426;2023-05-17T00:31:45;9.80;98.90
4757;DHT22;2392;52.578;13.426;2023-05-17T00:34:12;9.80;99.10
4757;DHT22;2392;52.578;13.426;2023-05-17T00:36:39;9.70;99.50
4757;DHT22;2392;52.578;13.426;2023-05-17T00:39:09;9.80;99.90
4757;DHT22;2392;52.578;13.426;2023-05-17T00:41:36;9.70;99.90
4757;DHT22;2392;52.578;13.426;2023-05-17T00:44:03;9.70;99.90
4757;DHT22;2392;52.578;13.426;2023-05-17T00:46:30;9.70;99.90
4757;DHT22;2392;52.578;13.426;2023-05-17T00:48:58;9.60;99.90
4757;DHT22;2392;52.578;13.426;2023-05-17T00:51:25;9.60;99.90
4757;DHT22;2392;52.578;13.426;2023-05-17T00:53:53;9.60;99.90
4757;DHT22;2392;52.578;13.426;2023-05-17T00:56:22;9.50;99.90
4757;DHT22;2392;52.578;13.426;2023-05-17T00:58:50;9.50;99.90
4757;DHT22;2392;52.578;13.426;2023-05-17T01:01:18;9.50;99.90
4757;DHT22;2392;52.578;13.426;2023-05-17T01:03:45;9.40;99.90
4757;DHT22;2392;52.578;13.426;2023-05-17T01:06:12;9.40;99.90
4757;DHT22;2392;52.578;13.426;2023-05-17T01:08:39;9.40;99.90
4757;DHT22;2392;52.578;13.426;2023-05-17T01:11:13;9.40;99.90
4757;DHT22;2392;52.578;13.426;2023-05-17T01:13:53;9.30;99.90
4757;DHT22;2392;52.578;13.426;2023-05-17T01:16:26;9.30;99.90
4757;DHT22;2392;52.578;13.426;2023-05-17T01:18:59;9.20;99.90
4757;DHT22;2392;52.578;13.426;2023-05-17T01:21:39;9.30;99.90
4757;DHT22;2392;52.578;13.426;2023-05-17T01:24:22;9.20;99.90
4757;DHT22;2392;52.578;13.426;2023-05-17T01:26:53;9.20;99.90
4757;DHT22;2392;52.578;13.426;2023-05-17T01:29:23;9.20;99.90
4757;DHT22;2392;52.578;13.426;2023-05-17T01:31:55;9.10;99.90
4757;DHT22;2392;52.578;13.426;2023-05-17T01:34:24;9.10;99.90
4757;DHT22;2392;52.578;13.426;2023-05-17T01:36:51;9.10;99.90
4757;DHT22;2392;52.578;13.426;2023-05-17T01:39:18;9.10;99.90
4757;DHT22;2392;52.578;13.426;2023-05-17T01:41:53;9.10;99.90
4757;DHT22;2392;52.578;13.426;2023-05-17T01:44:25;9.10;99.90
4757;DHT22;2392;52.578;13.426;2023-05-17T01:47:00;9.10;99.90
4757;DHT22;2392;52.578;13.426;2023-05-17T01:49:30;9.10;99.90
4757;DHT22;2392;52.578;13.426;2023-05-17T01:52:03;9.10;99.90
4757;DHT22;2392;52.578;13.426;2023-05-17T01:54:38;9.00;99.90
4757;DHT22;2392;52.578;13.426;2023-05-17T01:57:07;9.00;99.90
4757;DHT22;2392;52.578;13.426;2023-05-17T01:59:37;9.00;99.90
4757;DHT22;2392;52.578;13.426;2023-05-17T02:02:05;9.00;99.90
4757;DHT22;2392;52.578;13.426;2023-05-17T02:04:35;9.00;99.90
4757;DHT22;2392;52.578;13.426;2023-05-17T02:07:02;9.00;99.90
4757;DHT22;2392;52.578;13.426;2023-05-17T02:09:29;8.90;99.90
4757;DHT22;2392;52.578;13.426;2023-05-17T02:11:56;8.90;99.90
4757;DHT22;2392;52.578;13.426;2023-05-17T02:14:24;8.90;99.90
4757;DHT22;2392;52.578;13.426;2023-05-17T02:16:52;8.90;99.90
4757;DHT22;2392;52.578;13.426;2023-05-17T02:19:19;8.90;99.90
4757;DHT22;2392;52.578;13.426;2023-05-17T02:21:46;8.90;99.90
4757;DHT22;2392;52.578;13.426;2023-05-17T02:24:13;8.90;99.90
4757;DHT22;2392;52.578;13.426;2023-05-17T02:26:40;8.90;99.90
4757;DHT22;2392;52.578;13.426;2023-05-17T02:29:07;8.80;99.90
4757;DHT22;2392;52.578;13.426;2023-05-17T02:31:36;8.80;99.90
4757;DHT22;2392;52.578;13.426;2023-05-17T02:34:03;8.80;99.90
4757;DHT22;2392;52.578;13.426;2023-05-17T02:36:30;8.80;99.90
4757;DHT22;2392;52.578;13.426;2023-05-17T02:38:58;8.80;99.90
4757;DHT22;2392;52.578;13.426;2023-05-17T02:41:25;8.90;99.90
4757;DHT22;2392;52.578;13.426;2023-05-17T02:43:52;8.80;99.90
4757;DHT22;2392;52.578;13.426;2023-05-17T02:46:19;8.90;99.90
4757;DHT22;2392;52.578;13.426;2023-05-17T02:48:47;9.00;99.90
4757;DHT22;2392;52.578;13.426;2023-05-17T02:51:14;9.00;99.90
4757;DHT22;2392;52.578;13.426;2023-05-17T02:53:41;9.00;99.90
4757;DHT22;2392;52.578;13.426;2023-05-17T02:56:08;9.00;99.90
4757;DHT22;2392;52.578;13.426;2023-05-17T02:58:35;9.00;99.90
4757;DHT22;2392;52.578;13.426;2023-05-17T03:01:02;9.10;99.90
4757;DHT22;2392;52.578;13.426;2023-05-17T03:03:30;9.10;99.90
4757;DHT22;2392;52.578;13.426;2023-05-17T03:06:01;9.10;99.90
4757;DHT22;2392;52.578;13.426;2023-05-17T03:08:30;9.00;99.90
4757;DHT22;2392;52.578;13.426;2023-05-17T03:10:58;9.00;99.90
4757;DHT22;2392;52.578;13.426;2023-05-17T03:13:26;9.10;99.90
4757;DHT22;2392;52.578;13.426;2023-05-17T03:15:53;9.10;99.90
4757;DHT22;2392;52.578;13.426;2023-05-17T03:18:20;9.10;99.90
4757;DHT22;2392;52.578;13.426;2023-05-17T03:20:47;9.10;99.90
4757;DHT22;2392;52.578;13.426;2023-05-17T03:23:16;9.10;99.90
4757;DHT22;2392;52.578;13.426;2023-05-17T03:25:56;9.10;99.90
4757;DHT22;2392;52.578;13.426;2023-05-17T03:28:25;9.10;99.90
4757;DHT22;2392;52.578;13.426;2023-05-17T03:30:52;9.10;99.90
4757;DHT22;2392;52.578;13.426;2023-05-17T03:33:20;9.10;99.90
4757;DHT22;2392;52.578;13.426;2023-05-17T03:35:46;9.10;99.90
4757;DHT22;2392;52.578;13.426;2023-05-17T03:38:15;9.10;99.90
4757;DHT22;2392;52.578;13.426;2023-05-17T03:40:42;9.10;99.90
4757;DHT22;2392;52.578;13.426;2023-05-17T03:43:09;9.20;99.90
4757;DHT22;2392;52.578;13.426;2023-05-17T03:45:36;9.20;99.90
4757;DHT22;2392;52.578;13.426;2023-05-17T03:48:05;9.20;99.90
4757;DHT22;2392;52.578;13.426;2023-05-17T03:50:32;9.20;99.90
4757;DHT22;2392;52.578;13.426;2023-05-17T03:52:59;9.20;99.90
4757;DHT22;2392;52.578;13.426;2023-05-17T03:55:27;9.20;99.90
4757;DHT22;2392;52.578;13.426;2023-05-17T03:57:54;9.20;99.90
4757;DHT22;2392;52.578;13.426;2023-05-17T04:00:23;9.20;99.90
4757;DHT22;2392;52.578;13.426;2023-05-17T04:02:56;9.20;99.90
4757;DHT22;2392;52.578;13.426;2023-05-17T04:05:23;9.20;99.90
4757;DHT22;2392;52.578;13.426;2023-05-17T04:07:52;9.20;99.90
4757;DHT22;2392;52.578;13.426;2023-05-17T04:10:19;9.20;99.90
4757;DHT22;2392;52.578;13.426;2023-05-17T04:12:48;9.10;99.90
4757;DHT22;2392;52.578;13.426;2023-05-17T04:15:15;9.00;99.90
4757;DHT22;2392;52.578;13.426;2023-05-17T04:17:43;9.00;99.90
4757;DHT22;2392;52.578;13.426;2023-05-17T04:20:11;9.00;99.90
4757;DHT22;2392;52.578;13.426;2023-05-17T04:22:38;9.00;99.90
4757;DHT22;2392;52.578;13.426;2023-05-17T04:25:06;9.00;99.90
4757;DHT22;2392;52.578;13.426;2023-05-17T04:27:33;9.00;99.90
4757;DHT22;2392;52.578;13.426;2023-05-17T04:30:05;9.00;99.90
4757;DHT22;2392;52.578;13.426;2023-05-17T04:32:34;8.90;99.90
4757;DHT22;2392;52.578;13.426;2023-05-17T04:35:01;8.90;99.90
4757;DHT22;2392;52.578;13.426;2023-05-17T04:37:29;9.00;99.90
4757;DHT22;2392;52.578;13.426;2023-05-17T04:40:01;9.00;99.90
4757;DHT22;2392;52.578;13.426;2023-05-17T04:42:30;9.00;99.90
4757;DHT22;2392;52.578;13.426;2023-05-17T04:44:58;9.00;99.90
4757;DHT22;2392;52.578;13.426;2023-05-17T04:47:29;9.10;99.90
4757;DHT22;2392;52.578;13.426;2023-05-17T04:49:56;9.10;99.90
4757;DHT22;2392;52.578;13.426;2023-05-17T04:52:23;9.10;99.90
4757;DHT22;2392;52.578;13.426;2023-05-17T04:54:51;9.10;99.90
4757;DHT22;2392;52.578;13.426;2023-05-17T04:57:20;9.10;99.90
4757;DHT22;2392;52.578;13.426;2023-05-17T04:59:56;9.10;99.90
4757;DHT22;2392;52.578;13.426;2023-05-17T05:02:24;9.10;99.90
4757;DHT22;2392;52.578;13.426;2023-05-17T05:04:53;9.10;99.90
4757;DHT22;2392;52.578;13.426;2023-05-17T05:07:20;9.10;99.90
4757;DHT22;2392;52.578;13.426;2023-05-17T05:09:47;9.10;99.90
4757;DHT22;2392;52.578;13.426;2023-05-17T05:12:16;9.10;99.90
4757;DHT22;2392;52.578;13.426;2023-05-17T05:14:43;9.10;99.90
4757;DHT22;2392;52.578;13.426;2023-05-17T05:17:11;9.20;99.90
4757;DHT22;2392;52.578;13.426;2023-05-17T05:19:40;9.20;99.90
4757;DHT22;2392;52.578;13.426;2023-05-17T05:22:08;9.30;99.90
4757;DHT22;2392;52.578;13.426;2023-05-17T05:24:36;9.30;99.90
4757;DHT22;2392;52.578;13.426;2023-05-17T05:27:04;9.40;99.90
4757;DHT22;2392;52.578;13.426;2023-05-17T05:29:31;9.40;99.90
4757;DHT22;2392;52.578;13.426;2023-05-17T05:31:58;9.50;99.90
4757;DHT22;2392;52.578;13.426;2023-05-17T05:34:25;9.50;99.90
4757;DHT22;2392;52.578;13.426;2023-05-17T05:36:54;9.50;99.90
4757;DHT22;2392;52.578;13.426;2023-05-17T05:39:22;9.50;99.90
4757;DHT22;2392;52.578;13.426;2023-05-17T05:41:49;9.60;99.90
4757;DHT22;2392;52.578;13.426;2023-05-17T05:44:18;9.60;99.90
4757;DHT22;2392;52.578;13.426;2023-05-17T05:46:46;9.70;99.90
4757;DHT22;2392;52.578;13.426;2023-05-17T05:49:14;9.80;99.90
4757;DHT22;2392;52.578;13.426;2023-05-17T05:51:42;9.90;99.90
4757;DHT22;2392;52.578;13.426;2023-05-17T05:54:09;9.90;99.90
4757;DHT22;2392;52.578;13.426;2023-05-17T05:56:38;9.90;99.90
4757;DHT22;2392;52.578;13.426;2023-05-17T05:59:06;9.90;99.90
4757;DHT22;2392;52.578;13.426;2023-05-17T06:01:33;10.00;99.90
4757;DHT22;2392;52.578;13.426;2023-05-17T06:04:00;9.90;99.90
4757;DHT22;2392;52.578;13.426;2023-05-17T06:06:27;9.90;99.90
4757;DHT22;2392;52.578;13.426;2023-05-17T06:08:54;9.90;99.90
4757;DHT22;2392;52.578;13.426;2023-05-17T06:11:22;9.90;99.90
4757;DHT22;2392;52.578;13.426;2023-05-17T06:13:51;9.90;99.90
4757;DHT22;2392;52.578;13.426;2023-05-17T06:16:18;9.90;99.90
4757;DHT22;2392;52.578;13.426;2023-05-17T06:18:44;10.00;99.90
4757;DHT22;2392;52.578;13.426;2023-05-17T06:21:11;10.10;99.90
4757;DHT22;2392;52.578;13.426;2023-05-17T06:23:40;10.20;99.90
4757;DHT22;2392;52.578;13.426;2023-05-17T06:26:07;10.30;99.90
4757;DHT22;2392;52.578;13.426;2023-05-17T06:28:35;10.30;99.90
4757;DHT22;2392;52.578;13.426;2023-05-17T06:31:04;10.20;99.90
4757;DHT22;2392;52.578;13.426;2023-05-17T06:33:31;10.10;99.90
4757;DHT22;2392;52.578;13.426;2023-05-17T06:35:58;10.00;99.90
4757;DHT22;2392;52.578;13.426;2023-05-17T06:38:25;9.90;99.90
4757;DHT22;2392;52.578;13.426;2023-05-17T06:40:52;9.90;99.90
4757;DHT22;2392;52.578;13.426;2023-05-17T06:43:19;9.90;99.90
4757;DHT22;2392;52.578;13.426;2023-05-17T06:45:46;9.90;99.90
4757;DHT22;2392;52.578;13.426;2023-05-17T06:48:15;10.00;99.90
4757;DHT22;2392;52.578;13.426;2023-05-17T06:50:42;10.10;99.90
4757;DHT22;2392;52.578;13.426;2023-05-17T06:53:09;10.30;99.90
4757;DHT22;2392;52.578;13.426;2023-05-17T06:55:36;10.40;99.90
4757;DHT22;2392;52.578;13.426;2023-05-17T06:58:03;10.50;99.90
4757;DHT22;2392;52.578;13.426;2023-05-17T07:00:30;10.60;99.90
4757;DHT22;2392;52.578;13.426;2023-05-17T07:02:57;10.70;99.90
4757;DHT22;2392;52.578;13.426;2023-05-17T07:05:26;10.70;99.90
4757;DHT22;2392;52.578;13.426;2023-05-17T07:07:56;10.70;99.90
4757;DHT22;2392;52.578;13.426;2023-05-17T07:10:23;10.70;99.90
4757;DHT22;2392;52.578;13.426;2023-05-17T07:12:51;10.60;99.90
4757;DHT22;2392;52.578;13.426;2023-05-17T07:15:18;10.60;99.90
4757;DHT22;2392;52.578;13.426;2023-05-17T07:17:45;10.60;99.90
4757;DHT22;2392;52.578;13.426;2023-05-17T07:20:12;10.60;99.90
4757;DHT22;2392;52.578;13.426;2023-05-17T07:22:41;10.60;99.90
4757;DHT22;2392;52.578;13.426;2023-05-17T07:25:09;10.70;99.90
4757;DHT22;2392;52.578;13.426;2023-05-17T07:27:36;10.70;99.90
4757;DHT22;2392;52.578;13.426;2023-05-17T07:30:04;10.70;99.90
4757;DHT22;2392;52.578;13.426;2023-05-17T07:32:31;10.70;99.90
4757;DHT22;2392;52.578;13.426;2023-05-17T07:34:58;10.70;99.90
4757;DHT22;2392;52.578;13.426;2023-05-17T07:37:26;10.80;99.90
4757;DHT22;2392;52.578;13.426;2023-05-17T07:39:55;10.80;99.90
4757;DHT22;2392;52.578;13.426;2023-05-17T07:42:22;10.90;99.90
4757;DHT22;2392;52.578;13.426;2023-05-17T07:44:49;11.00;99.90
4757;DHT22;2392;52.578;13.426;2023-05-17T07:47:16;11.00;99.90
4757;DHT22;2392;52.578;13.426;2023-05-17T07:49:43;11.00;99.90
4757;DHT22;2392;52.578;13.426;2023-05-17T07:52:11;11.00;99.90
4757;DHT22;2392;52.578;13.426;2023-05-17T07:54:38;11.00;99.90
4757;DHT22;2392;52.578;13.426;2023-05-17T07:57:06;11.00;99.90
4757;DHT22;2392;52.578;13.426;2023-05-17T07:59:33;11.10;99.90
4757;DHT22;2392;52.578;13.426;2023-05-17T08:02:00;11.10;99.90
4757;DHT22;2392;52.578;13.426;2023-05-17T08:04:27;11.10;99.90
4757;DHT22;2392;52.578;13.426;2023-05-17T08:06:54;11.20;99.90
4757;DHT22;2392;52.578;13.426;2023-05-17T08:09:22;11.20;99.90
4757;DHT22;2392;52.578;13.426;2023-05-17T08:11:49;11.30;99.90
4757;DHT22;2392;52.578;13.426;2023-05-17T08:14:20;11.40;99.90
4757;DHT22;2392;52.578;13.426;2023-05-17T08:16:47;11.40;99.90
4757;DHT22;2392;52.578;13.426;2023-05-17T08:19:16;11.40;99.90
4757;DHT22;2392;52.578;13.426;2023-05-17T08:21:43;11.50;99.90
4757;DHT22;2392;52.578;13.426;2023-05-17T08:24:14;11.50;99.90
4757;DHT22;2392;52.578;13.426;2023-05-17T08:26:42;11.50;99.50
4757;DHT22;2392;52.578;13.426;2023-05-17T08:29:09;11.50;99.50
4757;DHT22;2392;52.578;13.426;2023-05-17T08:31:38;11.50;99.20
4757;DHT22;2392;52.578;13.426;2023-05-17T08:34:05;11.60;99.20
4757;DHT22;2392;52.578;13.426;2023-05-17T08:36:32;11.60;97.80
4757;DHT22;2392;52.578;13.426;2023-05-17T08:38:59;11.70;97.60
4757;DHT22;2392;52.578;13.426;2023-05-17T08:41:26;11.80;96.50
4757;DHT22;2392;52.578;13.426;2023-05-17T08:43:54;11.80;97.10
4757;DHT22;2392;52.578;13.426;2023-05-17T08:46:22;11.90;97.90
4757;DHT22;2392;52.578;13.426;2023-05-17T08:48:52;12.00;97.70
4757;DHT22;2392;52.578;13.426;2023-05-17T08:51:21;12.10;97.50
4757;DHT22;2392;52.578;13.426;2023-05-17T08:53:48;12.20;97.30
4757;DHT22;2392;52.578;13.426;2023-05-17T08:56:16;12.30;96.80
4757;DHT22;2392;52.578;13.426;2023-05-17T08:58:46;12.40;97.40
4757;DHT22;2392;52.578;13.426;2023-05-17T09:01:14;12.40;97.30
4757;DHT22;2392;52.578;13.426;2023-05-17T09:03:45;12.40;96.50
4757;DHT22;2392;52.578;13.426;2023-05-17T09:06:15;12.40;96.40
4757;DHT22;2392;52.578;13.426;2023-05-17T09:08:44;12.50;96.50
4757;DHT22;2392;52.578;13.426;2023-05-17T09:11:11;12.60;96.20
4757;DHT22;2392;52.578;13.426;2023-05-17T09:13:38;12.70;95.80
4757;DHT22;2392;52.578;13.426;2023-05-17T09:16:12;12.70;93.80
4757;DHT22;2392;52.578;13.426;2023-05-17T09:18:40;12.70;92.90
4757;DHT22;2392;52.578;13.426;2023-05-17T09:21:07;12.80;93.60
4757;DHT22;2392;52.578;13.426;2023-05-17T09:23:37;12.90;93.60
4757;DHT22;2392;52.578;13.426;2023-05-17T09:26:04;12.90;93.90
4757;DHT22;2392;52.578;13.426;2023-05-17T09:28:39;13.00;93.70
4757;DHT22;2392;52.578;13.426;2023-05-17T09:31:07;13.00;93.60
4757;DHT22;2392;52.578;13.426;2023-05-17T09:33:37;13.10;93.40
4757;DHT22;2392;52.578;13.426;2023-05-17T09:36:14;13.10;92.80
4757;DHT22;2392;52.578;13.426;2023-05-17T09:38:50;13.10;93.40
4757;DHT22;2392;52.578;13.426;2023-05-17T09:41:17;13.10;91.50
4757;DHT22;2392;52.578;13.426;2023-05-17T09:43:44;13.10;90.70
4757;DHT22;2392;52.578;13.426;2023-05-17T09:46:11;13.10;91.40
4757;DHT22;2392;52.578;13.426;2023-05-17T09:48:40;13.20;92.00
4757;DHT22;2392;52.578;13.426;2023-05-17T09:51:08;13.30;92.00
4757;DHT22;2392;52.578;13.426;2023-05-17T09:53:35;13.30;91.60
4757;DHT22;2392;52.578;13.426;2023-05-17T09:56:06;13.50;91.90
4757;DHT22;2392;52.578;13.426;2023-05-17T09:58:35;13.50;92.10
4757;DHT22;2392;52.578;13.426;2023-05-17T10:01:04;13.60;91.70
4757;DHT22;2392;52.578;13.426;2023-05-17T10:03:32;13.60;90.00
4757;DHT22;2392;52.578;13.426;2023-05-17T10:06:00;13.60;90.00
4757;DHT22;2392;52.578;13.426;2023-05-17T10:08:28;13.60;90.40
4757;DHT22;2392;52.578;13.426;2023-05-17T10:11:01;13.70;90.60
4757;DHT22;2392;52.578;13.426;2023-05-17T10:13:33;14.30;90.10
4757;DHT22;2392;52.578;13.426;2023-05-17T10:16:02;15.10;89.30
4757;DHT22;2392;52.578;13.426;2023-05-17T10:18:29;15.80;89.30
4757;DHT22;2392;52.578;13.426;2023-05-17T10:20:57;16.50;86.80
4757;DHT22;2392;52.578;13.426;2023-05-17T10:23:26;17.30;87.00
4757;DHT22;2392;52.578;13.426;2023-05-17T10:25:54;18.00;83.00
4757;DHT22;2392;52.578;13.426;2023-05-17T10:28:22;18.60;81.90
4757;DHT22;2392;52.578;13.426;2023-05-17T10:30:52;19.30;80.10
4757;DHT22;2392;52.578;13.426;2023-05-17T10:33:20;20.10;78.30
4757;DHT22;2392;52.578;13.426;2023-05-17T10:35:48;20.90;75.20
4757;DHT22;2392;52.578;13.426;2023-05-17T10:38:17;21.80;71.30
4757;DHT22;2392;52.578;13.426;2023-05-17T10:40:45;22.40;69.80
4757;DHT22;2392;52.578;13.426;2023-05-17T10:43:13;23.20;68.20
4757;DHT22;2392;52.578;13.426;2023-05-17T10:45:41;22.90;64.40
4757;DHT22;2392;52.578;13.426;2023-05-17T10:48:10;23.90;65.00
4757;DHT22;2392;52.578;13.426;2023-05-17T10:50:40;24.30;63.10
4757;DHT22;2392;52.578;13.426;2023-05-17T10:53:08;24.60;59.90
4757;DHT22;2392;52.578;13.426;2023-05-17T10:55:38;24.80;59.00
4757;DHT22;2392;52.578;13.426;2023-05-17T10:58:15;25.40;58.50
4757;DHT22;2392;52.578;13.426;2023-05-17T11:00:44;26.30;58.60
4757;DHT22;2392;52.578;13.426;2023-05-17T11:03:15;27.00;54.60
4757;DHT22;2392;52.578;13.426;2023-05-17T11:05:44;26.90;52.90
4757;DHT22;2392;52.578;13.426;2023-05-17T11:08:13;27.20;53.70
4757;DHT22;2392;52.578;13.426;2023-05-17T11:11:07;27.70;52.10
4757;DHT22;2392;52.578;13.426;2023-05-17T11:13:43;27.90;51.40
4757;DHT22;2392;52.578;13.426;2023-05-17T11:16:14;27.40;50.80
4757;DHT22;2392;52.578;13.426;2023-05-17T11:18:47;27.70;49.70
4757;DHT22;2392;52.578;13.426;2023-05-17T11:21:14;28.00;50.30
4757;DHT22;2392;52.578;13.426;2023-05-17T11:23:42;28.20;49.30
4757;DHT22;2392;52.578;13.426;2023-05-17T11:26:18;27.30;49.30
4757;DHT22;2392;52.578;13.426;2023-05-17T11:28:47;26.40;49.90
4757;DHT22;2392;52.578;13.426;2023-05-17T11:31:14;25.00;50.40
4757;DHT22;2392;52.578;13.426;2023-05-17T11:33:42;23.40;51.60
4757;DHT22;2392;52.578;13.426;2023-05-17T11:36:17;21.70;54.10
4757;DHT22;2392;52.578;13.426;2023-05-17T11:38:47;20.70;55.40
4757;DHT22;2392;52.578;13.426;2023-05-17T11:41:17;19.70;56.60
4757;DHT22;2392;52.578;13.426;2023-05-17T11:43:45;18.90;56.80
4757;DHT22;2392;52.578;13.426;2023-05-17T11:46:18;18.50;57.90
4757;DHT22;2392;52.578;13.426;2023-05-17T11:48:46;18.10;57.90
4757;DHT22;2392;52.578;13.426;2023-05-17T11:51:16;17.90;59.00
4757;DHT22;2392;52.578;13.426;2023-05-17T11:53:44;17.70;59.50
4757;DHT22;2392;52.578;13.426;2023-05-17T11:56:13;17.40;61.00
4757;DHT22;2392;52.578;13.426;2023-05-17T11:58:43;17.30;60.50
4757;DHT22;2392;52.578;13.426;2023-05-17T12:01:11;17.00;60.90
4757;DHT22;2392;52.578;13.426;2023-05-17T12:03:38;16.90;61.70
4757;DHT22;2392;52.578;13.426;2023-05-17T12:06:07;16.80;62.00
4757;DHT22;2392;52.578;13.426;2023-05-17T12:08:38;16.70;62.80
4757;DHT22;2392;52.578;13.426;2023-05-17T12:11:06;16.70;62.80
4757;DHT22;2392;52.578;13.426;2023-05-17T12:13:38;16.60;62.20
4757;DHT22;2392;52.578;13.426;2023-05-17T12:16:08;16.60;62.90
4757;DHT22;2392;52.578;13.426;2023-05-17T12:18:36;16.50;61.90
4757;DHT22;2392;52.578;13.426;2023-05-17T12:21:04;16.50;62.10
4757;DHT22;2392;52.578;13.426;2023-05-17T12:23:32;16.40;60.30
4757;DHT22;2392;52.578;13.426;2023-05-17T12:26:06;16.40;62.00
4757;DHT22;2392;52.578;13.426;2023-05-17T12:28:34;16.40;61.10
4757;DHT22;2392;52.578;13.426;2023-05-17T12:31:02;16.50;61.40
4757;DHT22;2392;52.578;13.426;2023-05-17T12:33:30;16.50;60.00
4757;DHT22;2392;52.578;13.426;2023-05-17T12:35:59;16.50;60.30
4757;DHT22;2392;52.578;13.426;2023-05-17T12:38:27;16.60;61.60
4757;DHT22;2392;52.578;13.426;2023-05-17T12:40:57;16.60;61.10
4757;DHT22;2392;52.578;13.426;2023-05-17T12:43:26;16.60;61.60
4757;DHT22;2392;52.578;13.426;2023-05-17T12:46:00;16.80;62.20
4757;DHT22;2392;52.578;13.426;2023-05-17T12:48:27;16.90;62.70
4757;DHT22;2392;52.578;13.426;2023-05-17T12:50:54;16.90;61.80
4757;DHT22;2392;52.578;13.426;2023-05-17T12:53:21;17.00;61.60
4757;DHT22;2392;52.578;13.426;2023-05-17T12:55:51;17.10;62.80
4757;DHT22;2392;52.578;13.426;2023-05-17T12:58:22;17.10;61.80
4757;DHT22;2392;52.578;13.426;2023-05-17T13:00:57;17.10;62.40
4757;DHT22;2392;52.578;13.426;2023-05-17T13:03:25;17.10;61.70
4757;DHT22;2392;52.578;13.426;2023-05-17T13:06:02;17.10;62.20
4757;DHT22;2392;52.578;13.426;2023-05-17T13:08:33;17.10;62.00
4757;DHT22;2392;52.578;13.426;2023-05-17T13:11:08;17.00;62.50
4757;DHT22;2392;52.578;13.426;2023-05-17T13:13:35;16.90;62.10
4757;DHT22;2392;52.578;13.426;2023-05-17T13:16:05;16.90;61.80
4757;DHT22;2392;52.578;13.426;2023-05-17T13:18:47;16.90;62.20
4757;DHT22;2392;52.578;13.426;2023-05-17T13:21:16;16.90;62.40
4757;DHT22;2392;52.578;13.426;2023-05-17T13:23:44;16.80;62.80
4757;DHT22;2392;52.578;13.426;2023-05-17T13:26:11;16.80;63.40
4757;DHT22;2392;52.578;13.426;2023-05-17T13:28:39;16.90;64.00
4757;DHT22;2392;52.578;13.426;2023-05-17T13:31:07;17.00;63.60
4757;DHT22;2392;52.578;13.426;2023-05-17T13:33:34;17.00;63.80
4757;DHT22;2392;52.578;13.426;2023-05-17T13:36:01;17.10;63.60
4757;DHT22;2392;52.578;13.426;2023-05-17T13:38:28;17.10;64.10
4757;DHT22;2392;52.578;13.426;2023-05-17T13:40:55;17.20;63.60
4757;DHT22;2392;52.578;13.426;2023-05-17T13:43:22;17.20;64.10
4757;DHT22;2392;52.578;13.426;2023-05-17T13:45:49;17.30;64.30
4757;DHT22;2392;52.578;13.426;2023-05-17T13:48:22;17.30;64.20
4757;DHT22;2392;52.578;13.426;2023-05-17T13:50:50;17.30;64.00
4757;DHT22;2392;52.578;13.426;2023-05-17T13:53:17;17.30;63.60
4757;DHT22;2392;52.578;13.426;2023-05-17T13:55:44;17.30;64.80
4757;DHT22;2392;52.578;13.426;2023-05-17T13:58:12;17.40;64.50
4757;DHT22;2392;52.578;13.426;2023-05-17T14:00:40;17.50;64.40
4757;DHT22;2392;52.578;13.426;2023-05-17T14:03:09;17.40;64.70
4757;DHT22;2392;52.578;13.426;2023-05-17T14:05:38;17.50;64.20
4757;DHT22;2392;52.578;13.426;2023-05-17T14:08:06;17.50;64.90
4757;DHT22;2392;52.578;13.426;2023-05-17T14:10:33;17.60;64.10
4757;DHT22;2392;52.578;13.426;2023-05-17T14:13:00;17.50;63.30
4757;DHT22;2392;52.578;13.426;2023-05-17T14:15:27;17.40;64.50
4757;DHT22;2392;52.578;13.426;2023-05-17T14:17:54;17.40;64.30
4757;DHT22;2392;52.578;13.426;2023-05-17T14:20:21;17.30;64.30
4757;DHT22;2392;52.578;13.426;2023-05-17T14:22:51;17.40;65.00
4757;DHT22;2392;52.578;13.426;2023-05-17T14:25:18;17.40;64.20
4757;DHT22;2392;52.578;13.426;2023-05-17T14:27:45;17.30;63.10
4757;DHT22;2392;52.578;13.426;2023-05-17T14:30:13;17.10;64.60
4757;DHT22;2392;52.578;13.426;2023-05-17T14:32:41;17.00;65.00
4757;DHT22;2392;52.578;13.426;2023-05-17T14:35:08;16.90;65.00
4757;DHT22;2392;52.578;13.426;2023-05-17T14:37:35;16.90;64.50
4757;DHT22;2392;52.578;13.426;2023-05-17T14:40:05;17.00;64.50
4757;DHT22;2392;52.578;13.426;2023-05-17T14:42:32;17.00;64.20
4757;DHT22;2392;52.578;13.426;2023-05-17T14:44:59;17.00;64.30
4757;DHT22;2392;52.578;13.426;2023-05-17T14:47:26;16.90;64.50
4757;DHT22;2392;52.578;13.426;2023-05-17T14:49:53;16.90;64.10
4757;DHT22;2392;52.578;13.426;2023-05-17T14:52:21;16.90;64.00
4757;DHT22;2392;52.578;13.426;2023-05-17T14:54:48;16.80;64.20
4757;DHT22;2392;52.578;13.426;2023-05-17T14:57:16;16.70;64.80
4757;DHT22;2392;52.578;13.426;2023-05-17T14:59:46;16.70;65.00
4757;DHT22;2392;52.578;13.426;2023-05-17T15:02:13;16.80;64.20
4757;DHT22;2392;52.578;13.426;2023-05-17T15:04:40;16.80;64.00
4757;DHT22;2392;52.578;13.426;2023-05-17T15:07:07;16.60;64.20
4757;DHT22;2392;52.578;13.426;2023-05-17T15:09:38;16.50;64.80
4757;DHT22;2392;52.578;13.426;2023-05-17T15:12:07;16.50;64.80
4757;DHT22;2392;52.578;13.426;2023-05-17T15:14:35;16.50;64.30
4757;DHT22;2392;52.578;13.426;2023-05-17T15:17:03;16.60;65.30
4757;DHT22;2392;52.578;13.426;2023-05-17T15:19:30;16.60;64.70
4757;DHT22;2392;52.578;13.426;2023-05-17T15:21:58;16.50;64.30
4757;DHT22;2392;52.578;13.426;2023-05-17T15:24:27;16.50;64.80
4757;DHT22;2392;52.578;13.426;2023-05-17T15:26:54;16.40;65.00
4757;DHT22;2392;52.578;13.426;2023-05-17T15:29:21;16.40;65.80
4757;DHT22;2392;52.578;13.426;2023-05-17T15:31:49;16.50;65.50
4757;DHT22;2392;52.578;13.426;2023-05-17T15:34:16;16.60;64.50
4757;DHT22;2392;52.578;13.426;2023-05-17T15:36:43;16.90;64.20
4757;DHT22;2392;52.578;13.426;2023-05-17T15:39:11;17.20;63.60
4757;DHT22;2392;52.578;13.426;2023-05-17T15:41:38;17.50;63.80
4757;DHT22;2392;52.578;13.426;2023-05-17T15:44:05;17.80;63.00
4757;DHT22;2392;52.578;13.426;2023-05-17T15:46:33;18.00;63.00
4757;DHT22;2392;52.578;13.426;2023-05-17T15:49:02;17.90;62.00
4757;DHT22;2392;52.578;13.426;2023-05-17T15:51:29;17.90;62.60
4757;DHT22;2392;52.578;13.426;2023-05-17T15:53:56;17.90;63.10
4757;DHT22;2392;52.578;13.426;2023-05-17T15:56:23;17.80;63.30
4757;DHT22;2392;52.578;13.426;2023-05-17T15:58:50;17.70;63.70
4757;DHT22;2392;52.578;13.426;2023-05-17T16:01:17;17.60;63.70